TimeCET,TemperatureF,Dew PointF,Humidity,Sea Level PressureIn,VisibilityMPH,Wind Direction,Wind SpeedMPH,Gust SpeedMPH,PrecipitationIn,Events,Conditions,WindDirDegrees,DateUTC
5:30 AM,57.2,35.6,44,29.74,-9999.0,Variable,4.6,17.3,N/A,,Clear,0,2013-03-04 04:30:00
6:00 AM,57.2,35.6,44,29.71,-9999.0,Variable,5.8,-,N/A,,Clear,0,2013-03-04 05:00:00
6:30 AM,57.2,33.8,41,29.71,-9999.0,SE,9.2,-,N/A,,Clear,130,2013-03-04 05:30:00
7:00 AM,57.2,33.8,41,29.71,-9999.0,Variable,6.9,19.6,N/A,,Clear,0,2013-03-04 06:00:00
7:30 AM,55.4,33.8,44,29.71,-9999.0,Variable,2.3,-,N/A,,Clear,0,2013-03-04 06:30:00
8:00 AM,57.2,33.8,41,29.71,-9999.0,East,10.4,-,N/A,,Clear,100,2013-03-04 07:00:00
8:30 AM,57.2,33.8,41,29.71,-9999.0,ESE,10.4,28.8,N/A,,Clear,120,2013-03-04 07:30:00
9:30 AM,57.2,30.2,36,29.71,-9999.0,Variable,9.2,25.3,N/A,,Clear,0,2013-03-04 08:30:00
10:00 AM,59.0,33.8,39,29.71,-9999.0,Variable,4.6,-,N/A,,Clear,0,2013-03-04 09:00:00
10:30 AM,59.0,30.2,34,29.68,-9999.0,Variable,3.5,-,N/A,,Clear,0,2013-03-04 09:30:00
11:00 AM,60.8,32.0,34,29.68,-9999.0,Variable,4.6,23.0,N/A,,Clear,0,2013-03-04 10:00:00
11:30 AM,60.8,30.2,31,29.68,-9999.0,Variable,6.9,23.0,N/A,,Clear,0,2013-03-04 10:30:00
12:00 PM,62.6,30.2,30,29.65,-9999.0,Variable,6.9,21.9,N/A,,Clear,0,2013-03-04 11:00:00
12:30 PM,64.4,28.4,26,29.65,-9999.0,SE,13.8,-,N/A,,Clear,130,2013-03-04 11:30:00
1:00 PM,64.4,32.0,30,29.65,-9999.0,SE,11.5,-,N/A,,Clear,140,2013-03-04 12:00:00
1:30 PM,64.4,32.0,30,29.62,-9999.0,SE,15.0,27.6,N/A,,Clear,140,2013-03-04 12:30:00
2:00 PM,64.4,33.8,32,29.62,-9999.0,SSE,17.3,29.9,N/A,,Clear,150,2013-03-04 13:00:00
2:30 PM,62.6,33.8,34,29.62,-9999.0,SSE,18.4,31.1,N/A,,Clear,160,2013-03-04 13:30:00
3:00 PM,62.6,35.6,37,29.62,-9999.0,SSE,15.0,-,N/A,,Clear,150,2013-03-04 14:00:00
3:30 PM,62.6,35.6,37,29.59,-9999.0,SSE,13.8,-,N/A,,Clear,150,2013-03-04 14:30:00
4:00 PM,64.4,35.6,34,29.59,-9999.0,SSE,15.0,-,N/A,,Clear,160,2013-03-04 15:00:00
4:30 PM,64.4,37.4,37,29.56,-9999.0,SSE,13.8,-,N/A,,Clear,150,2013-03-04 15:30:00
5:00 PM,64.4,37.4,37,29.56,-9999.0,SE,17.3,28.8,N/A,,Clear,140,2013-03-04 16:00:00
5:30 PM,62.6,39.2,42,29.56,-9999.0,SSE,18.4,32.2,N/A,,Clear,150,2013-03-04 16:30:00
6:00 PM,62.6,39.2,42,29.56,-9999.0,SE,10.4,29.9,N/A,,Clear,130,2013-03-04 17:00:00
6:30 PM,62.6,39.2,42,29.56,-9999.0,SE,15.0,-,N/A,,Clear,140,2013-03-04 17:30:00
7:00 PM,60.8,37.4,42,29.59,-9999.0,SE,10.4,-,N/A,,Clear,130,2013-03-04 18:00:00
7:30 PM,60.8,39.2,45,29.56,-9999.0,SE,10.4,-,N/A,,Clear,140,2013-03-04 18:30:00
8:00 PM,60.8,39.2,45,29.56,-9999.0,Variable,4.6,-,N/A,,Clear,0,2013-03-04 19:00:00
8:30 PM,60.8,39.2,45,29.56,-9999.0,SE,8.1,-,N/A,,Clear,130,2013-03-04 19:30:00
9:00 PM,62.6,39.2,42,29.53,-9999.0,ESE,9.2,20.7,N/A,,Clear,110,2013-03-04 20:00:00
9:30 PM,60.8,41.0,48,29.53,-9999.0,East,3.5,-,N/A,,Clear,100,2013-03-04 20:30:00